Accueil
METAR-TAF:

METAR-TAF

Aéroports :

Aéroport international Saint-Gall-Altenrhein

Saint-Gall, Suisse

latitude: 47-29-06N, longitude: 009-33-43E, altitude: 398 m

Observation

Le bulletin a été fait il y a 29 minutes, à 04:50 UTC
Vent 3 kt de est
Température 6°C
Humidité 100%
Pression 1023 hPa
Visibilité: 6000 m
Ciel couvert à une hauteur de 700 ft

METAR: LSZR 280450Z 08003KT 6000 OVC007 06/06 Q1023 RMK A

Heure: 07:19 (05:19 UTC)

Prévision

Le bulletin a été fait il y a 2 heures et 54 minutes, à 02:25 UTC
Prévision valable du 28 à 03 UTC au 28 à 12 UTC
Vent 2 kt de direction variable
Visibilité: 7000 m
Ciel couvert à une hauteur de 600 ft
Evoluant progressivement
du 28 à 07 UTC au 28 à 10 UTC
Visibilité 10 km ou plus
pas de nuages en-dessous de 1500 mètres et pas de cumulonimbus.

TAF: LSZR 280225Z 2803/2812 VRB02KT 7000 OVC006 BECMG 2807/2810 CAVOK

Observations et prévisions météorologiques de plus de 4000 aéroports (messages METAR et TAF).

Les stations disponibles sont représentées par des disques jaunes et rouges sur la carte.

Passer la souris dessus pour voir le nom de la station.

Cliquer dessus pour voir les observations et prévisions météorologiques.

Pour changer de carte: cliquez sur les boutons verts avec une croix noire pour zoomer, sur le bouton vert avec un tiret pour effectuer un zoom arrière, ou sur les flèches vertes pour les cartes adjacentes.


METAR-TAF: